High Point, NC

8:38 PM EST on December 22, 2014 (GMT -0500)
Piedmont Triad International | Change Station
CLOSE
Current Station
Airport
Location: Greensboro,
Elevation: 886 ft
Nearby Weather Stations

Elev 886 ft 36.10 °N, 79.94 °W | Updated 44 minutes ago

Overcast
Overcast
35 °F
Feels Like 27 °F
N
12
Wind Variable Wind from NE

Today
High -- | Low -- °F
--% Chance of Precip.
Yesterday
High -- | Low -- °F
Precip. -- in
7:27 AM 5:10 PM
New Moon, 1% visible
Pressure 30.07 in
Visibility 1.8 miles
Clouds Overcast 300 ft
Windchill 27 °F
Dew Point 34 °F
Humidity 96%
Rainfall 0.10 in
Snow Depth Not available.
UV 0 out of 12
Pollen .30 out of 12
Air Quality Not available.
Flu Activity Not available.
METAR KGSO 230054Z 04010KT 1 3/4SM -DZ BR OVC003 02/01 A3005 RMK AO2 DZB51 SLP182 P0000 T00170011

More Conditions Fewer Conditions

Pressure 30.07 in
Visibility 1.8 miles
Clouds Overcast 300 ft
Windchill 27 °F
Dew Point 34 °F
Humidity 96%
Rainfall 0.10 in
Snow Depth Not available.
UV 0 out of 12
Pollen .30 out of 12
Air Quality Not available.
Flu Activity Not available.
METAR KGSO 230054Z 04010KT 1 3/4SM -DZ BR OVC003 02/01 A3005 RMK AO2 DZB51 SLP182 P0000 T00170011

More Conditions Fewer Conditions

10-Day Weather Forecast

Almanac

Astronomy

Dec. 22, 2014 Rise Set
Actual Time
Civil Twilight
Nautical Twilight
Astronomical Twilight
Moon
Length of Visible Light
Length of Day
Tomorrow will be .
, % of the Moon is Illuminated

Today's Extremes

State Highs State Lows

Community

WunderPhotos

Upload Photos

1,779,753 photos uploaded!

WunderBlogs® & News

Nearby

Air Quality

  Air Quality AQ Index Pollutant
Not available.

Snow Depth

Station Depth Elevation

Earthquake Activity

City Distance Mag. Time & Date
Minimum magnitude displayed is 2.5.

Coastal Water Temperatures

Place Temperature

Nearby Weather Stations